createdAt,value
2023-03-20T00:00:34.862Z,986.4
2023-03-20T00:02:36.702Z,986.3
2023-03-20T00:04:38.162Z,986.4
2023-03-20T00:06:39.630Z,986.4
2023-03-20T00:08:40.914Z,986.5
2023-03-20T00:10:42.147Z,986.5
2023-03-20T00:12:43.978Z,986.4
2023-03-20T00:14:45.608Z,986.5
2023-03-20T00:16:46.911Z,986.5
2023-03-20T00:18:48.545Z,986.5
2023-03-20T00:20:49.964Z,986.5
2023-03-20T00:22:51.703Z,986.5
2023-03-20T00:24:52.990Z,986.5
2023-03-20T00:26:54.673Z,986.5
2023-03-20T00:28:56.031Z,986.5
2023-03-20T00:30:57.650Z,986.5
2023-03-20T00:32:59.050Z,986.6
2023-03-20T00:37:01.262Z,986.5
2023-03-20T00:39:02.927Z,986.6
2023-03-20T00:41:04.564Z,986.5
2023-03-20T00:43:05.699Z,986.6
2023-03-20T00:47:08.009Z,986.6
2023-03-20T00:49:09.308Z,986.6
2023-03-20T00:53:12.580Z,986.6
2023-03-20T00:55:13.975Z,986.6
2023-03-20T00:57:15.920Z,986.6
2023-03-20T00:59:17.161Z,986.6
2023-03-20T01:01:18.847Z,986.6
2023-03-20T01:03:20.654Z,986.6
2023-03-20T01:05:22.578Z,986.6
2023-03-20T01:07:24.207Z,986.6
2023-03-20T01:09:25.827Z,986.6
2023-03-20T01:11:26.862Z,986.6
2023-03-20T01:13:27.844Z,986.6
2023-03-20T01:15:28.790Z,986.6
2023-03-20T01:17:30.322Z,986.7
2023-03-20T01:19:31.656Z,986.6
2023-03-20T01:21:33.330Z,986.7
2023-03-20T01:23:36.324Z,986.7
2023-03-20T01:25:36.741Z,986.7
2023-03-20T01:27:38.218Z,986.7
2023-03-20T01:29:39.889Z,986.7
2023-03-20T01:31:41.534Z,986.7
2023-03-20T01:35:44.050Z,986.8
2023-03-20T01:37:45.654Z,986.9
2023-03-20T01:39:47.134Z,986.8
2023-03-20T01:41:48.253Z,986.9
2023-03-20T01:43:49.321Z,986.8
2023-03-20T01:45:50.993Z,986.9
2023-03-20T01:47:51.965Z,986.9
2023-03-20T01:51:54.567Z,986.8
2023-03-20T01:53:56.090Z,986.9
2023-03-20T01:55:57.451Z,986.9
2023-03-20T01:57:59.216Z,986.9
2023-03-20T02:00:00.964Z,986.9
2023-03-20T02:02:01.942Z,987
2023-03-20T02:04:03.860Z,986.9
2023-03-20T02:06:04.900Z,986.9
2023-03-20T02:08:06.276Z,986.8
2023-03-20T02:10:08.045Z,986.9
2023-03-20T02:12:08.997Z,986.9
2023-03-20T02:14:10.059Z,986.9
2023-03-20T02:16:11.204Z,987
2023-03-20T02:18:12.430Z,986.9
2023-03-20T02:20:13.418Z,986.9
2023-03-20T02:22:15.342Z,986.8
2023-03-20T02:24:16.342Z,986.8
2023-03-20T02:26:17.288Z,986.8
2023-03-20T02:28:18.695Z,986.9
2023-03-20T02:30:20.182Z,986.9
2023-03-20T02:32:21.301Z,986.8
2023-03-20T02:34:22.609Z,986.8
2023-03-20T02:36:23.795Z,986.8
2023-03-20T02:38:24.839Z,986.9
2023-03-20T02:40:26.251Z,986.8
2023-03-20T02:42:27.465Z,986.9
2023-03-20T02:44:28.984Z,986.9
2023-03-20T02:46:30.015Z,986.9
2023-03-20T02:48:31.165Z,986.9
2023-03-20T02:50:32.889Z,986.9
2023-03-20T02:52:34.786Z,986.8
2023-03-20T02:54:35.766Z,986.9
2023-03-20T02:56:37.113Z,986.8
2023-03-20T02:58:38.720Z,986.8
2023-03-20T03:00:39.696Z,986.8
2023-03-20T03:02:49.435Z,986.8
2023-03-20T03:04:43.181Z,986.8
2023-03-20T03:06:44.946Z,986.8
2023-03-20T03:08:46.561Z,986.8
2023-03-20T03:10:47.734Z,986.9
2023-03-20T03:12:49.155Z,986.8
2023-03-20T03:16:52.266Z,986.9
2023-03-20T03:19:02.421Z,986.9
2023-03-20T03:20:54.462Z,987
2023-03-20T03:22:55.568Z,986.9
2023-03-20T03:24:56.959Z,986.9
2023-03-20T03:26:58.871Z,986.9
2023-03-20T03:29:00.465Z,987
2023-03-20T03:31:02.222Z,987
2023-03-20T03:33:04.099Z,987
2023-03-20T03:35:05.454Z,987
2023-03-20T03:37:07.003Z,987
2023-03-20T03:39:08.918Z,987
2023-03-20T03:41:10.070Z,986.9
2023-03-20T03:43:11.801Z,987
2023-03-20T03:45:13.075Z,987
2023-03-20T03:47:58.451Z,987.1
2023-03-20T03:50:00.086Z,987.1
2023-03-20T03:52:01.516Z,987.1
2023-03-20T03:54:02.648Z,987
2023-03-20T03:56:03.880Z,987
2023-03-20T03:58:05.548Z,986.9
2023-03-20T04:00:07.346Z,987
2023-03-20T04:02:09.110Z,987
2023-03-20T04:04:10.111Z,987
2023-03-20T04:06:11.877Z,987
2023-03-20T04:10:14.821Z,987.1
2023-03-20T04:12:16.132Z,987
2023-03-20T04:14:17.782Z,987.1
2023-03-20T04:16:19.548Z,987.1
2023-03-20T04:18:21.264Z,987.1
2023-03-20T04:20:22.975Z,987.1
2023-03-20T04:22:24.341Z,987.1
2023-03-20T04:24:26.072Z,987.2
2023-03-20T04:26:27.175Z,987.1
2023-03-20T04:28:28.689Z,987
2023-03-20T04:30:30.431Z,987.1
2023-03-20T04:32:31.594Z,987.1
2023-03-20T04:34:33.179Z,987.2
2023-03-20T04:36:35.113Z,987.2
2023-03-20T04:38:36.663Z,987.2
2023-03-20T04:40:38.251Z,987.3
2023-03-20T04:42:40.017Z,987.2
2023-03-20T04:44:41.083Z,987.2
2023-03-20T04:46:42.421Z,987.2
2023-03-20T04:48:43.612Z,987.2
2023-03-20T04:50:45.081Z,987.2
2023-03-20T04:52:46.255Z,987.2
2023-03-20T04:54:47.317Z,987.1
2023-03-20T04:56:48.562Z,987.1
2023-03-20T04:58:50.278Z,987.3
2023-03-20T05:00:52.249Z,987.2
2023-03-20T05:02:54.035Z,987.2
2023-03-20T05:04:55.645Z,987.3
2023-03-20T05:06:56.785Z,987.3
2023-03-20T05:08:57.781Z,987.4
2023-03-20T05:10:59.192Z,987.3
2023-03-20T05:13:00.872Z,987.3
2023-03-20T05:15:02.036Z,987.3
2023-03-20T05:19:05.209Z,987.5
2023-03-20T05:21:06.473Z,987.4
2023-03-20T05:23:08.379Z,987.4
2023-03-20T05:25:09.952Z,987.5
2023-03-20T05:29:13.227Z,987.4
2023-03-20T05:31:14.648Z,987.5
2023-03-20T05:33:15.819Z,987.5
2023-03-20T05:35:17.280Z,987.5
2023-03-20T05:37:18.810Z,987.6
2023-03-20T05:39:20.376Z,987.6
2023-03-20T05:41:21.719Z,987.5
2023-03-20T05:43:22.732Z,987.6
2023-03-20T05:45:23.869Z,987.6
2023-03-20T05:47:26.242Z,987.7
2023-03-20T05:49:26.882Z,987.6
2023-03-20T05:51:28.596Z,987.7
2023-03-20T05:53:30.212Z,987.7
2023-03-20T05:55:31.300Z,987.7
2023-03-20T05:57:33.006Z,987.7
2023-03-20T05:59:34.458Z,987.7
2023-03-20T06:01:35.971Z,987.8
2023-03-20T06:03:37.259Z,987.8
2023-03-20T06:05:38.605Z,987.8
2023-03-20T06:07:39.497Z,987.7
2023-03-20T06:09:40.943Z,987.9
2023-03-20T06:11:42.451Z,987.9
2023-03-20T06:13:43.997Z,987.8
2023-03-20T06:17:46.368Z,987.8
2023-03-20T06:19:47.623Z,987.7
2023-03-20T06:21:49.079Z,987.8
2023-03-20T06:23:50.613Z,987.7
2023-03-20T06:25:51.767Z,987.7
2023-03-20T06:27:53.213Z,987.6
2023-03-20T06:29:54.633Z,987.6
2023-03-20T06:31:55.822Z,987.7
2023-03-20T06:33:56.883Z,987.6
2023-03-20T06:35:58.238Z,987.6
2023-03-20T06:37:59.695Z,987.8
2023-03-20T06:40:00.626Z,987.8
2023-03-20T06:42:01.797Z,987.8
2023-03-20T06:44:03.494Z,987.7
2023-03-20T06:46:04.430Z,987.8
2023-03-20T06:48:06.090Z,987.9
2023-03-20T06:50:07.181Z,987.7
2023-03-20T06:52:08.589Z,987.7
2023-03-20T06:54:10.358Z,987.7
2023-03-20T06:56:12.282Z,987.7
2023-03-20T06:58:13.735Z,987.7
2023-03-20T07:00:14.669Z,987.7
2023-03-20T07:02:15.635Z,987.7
2023-03-20T07:04:16.805Z,987.8
2023-03-20T07:06:17.888Z,987.7
2023-03-20T07:08:19.434Z,987.8
2023-03-20T07:10:21.258Z,987.8
2023-03-20T07:12:22.240Z,987.8
2023-03-20T07:14:23.519Z,987.8
2023-03-20T07:16:25.288Z,987.8
2023-03-20T07:18:26.823Z,987.9
2023-03-20T07:20:28.205Z,987.9
2023-03-20T07:22:29.747Z,988
2023-03-20T07:24:31.246Z,988
2023-03-20T07:26:33.003Z,988
2023-03-20T07:28:34.458Z,988
2023-03-20T07:30:35.860Z,988
2023-03-20T07:32:37.861Z,988
2023-03-20T07:34:38.147Z,987.9
2023-03-20T07:36:39.645Z,987.9
2023-03-20T07:38:41.064Z,987.9
2023-03-20T07:42:44.172Z,988
2023-03-20T07:44:45.436Z,987.9
2023-03-20T07:46:47.088Z,987.9
2023-03-20T07:48:48.823Z,987.8
2023-03-20T07:52:51.006Z,988
2023-03-20T07:54:52.226Z,988.1
2023-03-20T07:58:55.409Z,988
2023-03-20T08:00:56.749Z,988
2023-03-20T08:02:58.142Z,988
2023-03-20T08:04:59.263Z,988.1
2023-03-20T08:07:00.734Z,988
2023-03-20T08:09:01.542Z,988.1
2023-03-20T08:11:02.968Z,988.1
2023-03-20T08:13:04.452Z,988
2023-03-20T08:15:06.187Z,988.1
2023-03-20T08:17:14.711Z,988.1
2023-03-20T08:19:08.543Z,988.1
2023-03-20T08:21:09.796Z,988.1
2023-03-20T08:23:11.044Z,988.1
2023-03-20T08:25:12.693Z,988.1
2023-03-20T08:27:13.781Z,988.1
2023-03-20T08:29:16.142Z,988.1
2023-03-20T08:31:17.930Z,988.1
2023-03-20T08:33:19.310Z,988.2
2023-03-20T08:35:32.415Z,988.2
2023-03-20T08:37:22.394Z,988.2
2023-03-20T08:39:24.065Z,988.3
2023-03-20T08:41:25.052Z,988.3
2023-03-20T08:43:26.727Z,988.2
2023-03-20T08:45:27.836Z,988.3
2023-03-20T08:47:29.688Z,988.2
2023-03-20T08:49:31.432Z,988.2
2023-03-20T08:51:32.714Z,988.3
2023-03-20T08:53:34.226Z,988.3
2023-03-20T08:57:37.166Z,988.2
2023-03-20T08:59:38.408Z,988.2
2023-03-20T09:01:49.021Z,988.3
2023-03-20T09:03:40.649Z,988.3
2023-03-20T09:05:42.255Z,988.3
2023-03-20T09:07:43.627Z,988.3
2023-03-20T09:09:44.800Z,988.3
2023-03-20T09:11:46.120Z,988.3
2023-03-20T09:13:47.974Z,988.3
2023-03-20T09:15:48.928Z,988.2
2023-03-20T09:17:50.685Z,988.4
2023-03-20T09:19:51.712Z,988.4
2023-03-20T09:21:52.999Z,988.4
2023-03-20T09:23:54.889Z,988.3
2023-03-20T09:25:56.769Z,988.3
2023-03-20T09:27:58.319Z,988.3
2023-03-20T09:29:59.616Z,988.2
2023-03-20T09:32:00.793Z,988.2
2023-03-20T09:34:02.598Z,988.2
2023-03-20T09:36:04.278Z,988.3
2023-03-20T09:38:05.398Z,988.3
2023-03-20T09:40:07.198Z,988.3
2023-03-20T09:42:08.941Z,988.3
2023-03-20T09:44:10.120Z,988.2
2023-03-20T09:46:11.973Z,988.3
2023-03-20T09:48:13.231Z,988.3
2023-03-20T09:50:14.531Z,988.3
2023-03-20T09:52:16.158Z,988.2
2023-03-20T09:54:17.858Z,988.3
2023-03-20T09:56:19.183Z,988.3
2023-03-20T09:58:20.702Z,988.4
2023-03-20T10:00:21.823Z,988.4
2023-03-20T10:02:23.494Z,988.3
2023-03-20T10:06:26.685Z,988.4
2023-03-20T10:08:28.407Z,988.4
2023-03-20T10:10:30.001Z,988.4
2023-03-20T10:12:31.162Z,988.4
2023-03-20T10:16:33.187Z,988.6
2023-03-20T10:18:34.310Z,988.5
2023-03-20T10:20:36.384Z,988.5
2023-03-20T10:22:37.352Z,988.5
2023-03-20T10:24:38.570Z,988.5
2023-03-20T10:26:40.172Z,988.6
2023-03-20T10:28:41.334Z,988.6
2023-03-20T10:30:42.632Z,988.6
2023-03-20T10:33:27.874Z,988.6
2023-03-20T10:35:29.544Z,988.6
2023-03-20T10:37:30.487Z,988.7
2023-03-20T10:39:31.970Z,988.6
2023-03-20T10:41:33.388Z,988.6
2023-03-20T10:43:37.391Z,988.6
2023-03-20T10:45:35.862Z,988.6
2023-03-20T10:47:37.166Z,988.6
2023-03-20T10:49:38.864Z,988.6
2023-03-20T10:51:40.504Z,988.6
2023-03-20T10:53:42.253Z,988.6
2023-03-20T10:55:43.542Z,988.6
2023-03-20T10:57:44.754Z,988.6
2023-03-20T10:59:46.310Z,988.6
2023-03-20T11:01:47.453Z,988.5
2023-03-20T11:03:49.049Z,988.6
2023-03-20T11:06:02.357Z,988.5
2023-03-20T11:07:51.363Z,988.6
2023-03-20T11:09:52.550Z,988.4
2023-03-20T11:11:54.106Z,988.5
2023-03-20T11:15:57.267Z,988.5
2023-03-20T11:17:58.361Z,988.6
2023-03-20T11:20:00.043Z,988.5
2023-03-20T11:22:01.563Z,988.5
2023-03-20T11:24:03.195Z,988.5
2023-03-20T11:26:04.974Z,988.6
2023-03-20T11:28:06.447Z,988.6
2023-03-20T11:30:08.008Z,988.6
2023-03-20T11:32:09.047Z,988.5
2023-03-20T11:34:10.411Z,988.6
2023-03-20T11:36:12.127Z,988.4
2023-03-20T11:38:13.216Z,988.5
2023-03-20T11:40:14.879Z,988.6
2023-03-20T11:42:16.795Z,988.6
2023-03-20T11:44:18.665Z,988.6
2023-03-20T11:46:19.889Z,988.6
2023-03-20T11:48:20.966Z,988.5
2023-03-20T11:50:22.835Z,988.5
2023-03-20T11:52:24.104Z,988.5
2023-03-20T11:54:25.403Z,988.5
2023-03-20T11:58:28.561Z,988.4
2023-03-20T12:00:30.228Z,988.4
2023-03-20T12:02:32.207Z,988.4
2023-03-20T12:04:33.056Z,988.4
2023-03-20T12:06:34.166Z,988.4
2023-03-20T12:08:35.838Z,988.4
2023-03-20T12:10:37.826Z,988.4
2023-03-20T12:12:38.685Z,988.3
2023-03-20T12:14:40.085Z,988.3
2023-03-20T12:16:41.226Z,988.3
2023-03-20T12:18:42.489Z,988.4
2023-03-20T12:20:43.498Z,988.4
2023-03-20T12:24:46.088Z,988.4
2023-03-20T12:26:47.017Z,988.4
2023-03-20T12:28:48.137Z,988.3
2023-03-20T12:30:49.879Z,988.3
2023-03-20T12:34:52.349Z,988.3
2023-03-20T12:36:53.773Z,988.3
2023-03-20T12:40:56.594Z,988.3
2023-03-20T12:42:57.866Z,988.3
2023-03-20T12:44:59.498Z,988.2
2023-03-20T12:47:00.788Z,988.3
2023-03-20T12:49:02.225Z,988.2
2023-03-20T12:51:03.918Z,988.3
2023-03-20T12:53:05.527Z,988.3
2023-03-20T12:55:06.742Z,988.2
2023-03-20T12:57:08.277Z,988.2
2023-03-20T12:59:09.921Z,988.2
2023-03-20T13:01:11.120Z,988.2
2023-03-20T13:03:12.443Z,988.2
2023-03-20T13:05:13.812Z,988.2
2023-03-20T13:07:23.555Z,988.1
2023-03-20T13:09:16.588Z,988.1
2023-03-20T13:11:17.907Z,987.9
2023-03-20T13:13:19.379Z,987.9
2023-03-20T13:15:21.719Z,988
2023-03-20T13:17:22.496Z,987.9
2023-03-20T13:19:23.947Z,987.8
2023-03-20T13:21:25.134Z,987.7
2023-03-20T13:23:26.447Z,987.8
2023-03-20T13:25:27.884Z,987.7
2023-03-20T13:27:28.882Z,987.6
2023-03-20T13:29:29.788Z,987.7
2023-03-20T13:31:30.728Z,987.6
2023-03-20T13:33:31.930Z,987.5
2023-03-20T13:35:33.304Z,987.6
2023-03-20T13:39:36.490Z,987.6
2023-03-20T13:41:38.296Z,987.6
2023-03-20T13:43:40.501Z,987.4
2023-03-20T13:45:41.389Z,987.4
2023-03-20T13:47:43.758Z,987.5
2023-03-20T13:49:45.023Z,987.5
2023-03-20T13:51:45.957Z,987.5
2023-03-20T13:53:47.265Z,987.4
2023-03-20T13:55:48.525Z,987.4
2023-03-20T13:57:49.961Z,987.4
2023-03-20T13:59:51.556Z,987.3
2023-03-20T14:01:53.092Z,987.4
2023-03-20T14:03:54.951Z,987.3
2023-03-20T14:05:56.565Z,987.3
2023-03-20T14:07:58.332Z,987.2
2023-03-20T14:09:59.566Z,987.2
2023-03-20T14:12:00.636Z,987.2
2023-03-20T14:14:01.761Z,987.2
2023-03-20T14:16:02.983Z,987.2
2023-03-20T14:18:04.047Z,987.2
2023-03-20T14:20:05.405Z,987.2
2023-03-20T14:22:06.310Z,987.1
2023-03-20T14:24:07.780Z,987.2
2023-03-20T14:26:08.972Z,987.1
2023-03-20T14:28:10.092Z,987.2
2023-03-20T14:30:11.262Z,987.2
2023-03-20T14:32:12.252Z,987.2
2023-03-20T14:34:14.094Z,987.1
2023-03-20T14:36:15.503Z,987.1
2023-03-20T14:38:16.960Z,987.2
2023-03-20T14:40:18.081Z,987.2
2023-03-20T14:42:19.263Z,987.1
2023-03-20T14:44:20.714Z,987
2023-03-20T14:46:22.462Z,987.1
2023-03-20T14:48:23.581Z,987
2023-03-20T14:50:24.993Z,987
2023-03-20T14:52:26.359Z,987
2023-03-20T14:54:27.982Z,987
2023-03-20T14:56:29.217Z,986.9
2023-03-20T14:58:30.646Z,987
2023-03-20T15:00:32.463Z,987
2023-03-20T15:04:34.815Z,986.9
2023-03-20T15:06:36.670Z,987
2023-03-20T15:08:37.999Z,987
2023-03-20T15:10:39.782Z,986.9
2023-03-20T15:12:40.822Z,986.9
2023-03-20T15:14:41.941Z,986.9
2023-03-20T15:16:43.473Z,986.9
2023-03-20T15:18:53.400Z,986.9
2023-03-20T15:20:45.577Z,986.8
2023-03-20T15:22:47.159Z,986.8
2023-03-20T15:24:48.350Z,986.8
2023-03-20T15:26:50.023Z,986.8
2023-03-20T15:28:51.686Z,986.8
2023-03-20T15:30:53.099Z,986.8
2023-03-20T15:32:55.101Z,986.8
2023-03-20T15:34:55.942Z,986.9
2023-03-20T15:36:57.441Z,986.9
2023-03-20T15:38:59.067Z,986.9
2023-03-20T15:41:00.238Z,986.9
2023-03-20T15:43:01.536Z,987
2023-03-20T15:45:02.670Z,986.9
2023-03-20T15:47:03.674Z,986.9
2023-03-20T15:49:05.368Z,986.9
2023-03-20T15:51:07.228Z,986.9
2023-03-20T15:53:08.279Z,986.9
2023-03-20T15:55:10.143Z,986.8
2023-03-20T15:57:11.316Z,986.8
2023-03-20T15:59:12.199Z,986.9
2023-03-20T16:01:13.180Z,986.9
2023-03-20T16:03:14.737Z,986.8
2023-03-20T16:05:15.807Z,986.8
2023-03-20T16:07:16.942Z,986.8
2023-03-20T16:09:18.713Z,986.9
2023-03-20T16:11:19.987Z,986.9
2023-03-20T16:13:21.324Z,986.9
2023-03-20T16:15:22.279Z,986.9
2023-03-20T16:17:23.903Z,986.9
2023-03-20T16:19:25.716Z,986.8
2023-03-20T16:21:26.860Z,987
2023-03-20T16:23:27.838Z,987
2023-03-20T16:25:29.220Z,986.9
2023-03-20T16:29:32.327Z,986.9
2023-03-20T16:31:33.725Z,986.9
2023-03-20T16:33:34.998Z,986.9
2023-03-20T16:35:36.466Z,986.9
2023-03-20T16:39:38.503Z,986.9
2023-03-20T16:41:40.222Z,986.9
2023-03-20T16:43:42.425Z,986.9
2023-03-20T16:45:44.276Z,986.9
2023-03-20T16:47:44.892Z,986.9
2023-03-20T16:49:46.292Z,986.8
2023-03-20T16:51:47.255Z,986.8
2023-03-20T16:53:48.489Z,986.9
2023-03-20T16:55:50.030Z,986.8
2023-03-20T16:57:51.676Z,986.9
2023-03-20T16:59:53.291Z,986.9
2023-03-20T17:01:54.561Z,986.8
2023-03-20T17:03:55.585Z,986.8
2023-03-20T17:05:56.753Z,986.8
2023-03-20T17:07:58.626Z,986.8
2023-03-20T17:10:00.033Z,986.8
2023-03-20T17:12:00.815Z,986.8
2023-03-20T17:14:01.871Z,986.8
2023-03-20T17:16:03.594Z,986.8
2023-03-20T17:18:49.034Z,986.9
2023-03-20T17:20:50.035Z,986.9
2023-03-20T17:22:51.857Z,986.8
2023-03-20T17:26:55.635Z,986.8
2023-03-20T17:28:57.160Z,987
2023-03-20T17:30:58.603Z,987
2023-03-20T17:32:59.633Z,987
2023-03-20T17:35:01.206Z,987
2023-03-20T17:37:02.918Z,987
2023-03-20T17:39:04.318Z,986.9
2023-03-20T17:41:05.731Z,987
2023-03-20T17:43:07.206Z,987
2023-03-20T17:45:08.270Z,987
2023-03-20T17:47:09.830Z,987
2023-03-20T17:49:11.259Z,987
2023-03-20T17:51:13.107Z,987
2023-03-20T17:55:15.594Z,987
2023-03-20T17:57:16.786Z,987.1
2023-03-20T17:59:18.144Z,987.1
2023-03-20T18:01:19.281Z,987
2023-03-20T18:03:20.390Z,987
2023-03-20T18:05:21.409Z,987.1
2023-03-20T18:07:23.020Z,987
2023-03-20T18:09:24.229Z,987
2023-03-20T18:11:25.950Z,987
2023-03-20T18:13:26.970Z,987
2023-03-20T18:15:28.399Z,987
2023-03-20T18:17:29.970Z,987.1
2023-03-20T18:19:31.785Z,987
2023-03-20T18:21:32.851Z,987.2
2023-03-20T18:23:34.283Z,987
2023-03-20T18:25:35.258Z,987.2
2023-03-20T18:27:36.830Z,987.2
2023-03-20T18:29:38.713Z,987.1
2023-03-20T18:31:42.377Z,987.2
2023-03-20T18:33:41.503Z,987.2
2023-03-20T18:35:42.559Z,987.2
2023-03-20T18:37:44.461Z,987.2
2023-03-20T18:39:46.165Z,987.3
2023-03-20T18:41:47.776Z,987.2
2023-03-20T18:43:48.740Z,987.2
2023-03-20T18:45:49.719Z,987.2
2023-03-20T18:47:51.467Z,987.2
2023-03-20T18:49:53.070Z,987.2
2023-03-20T18:53:55.777Z,987.2
2023-03-20T18:55:57.168Z,987.2
2023-03-20T18:57:58.157Z,987.2
2023-03-20T18:59:59.385Z,987.2
2023-03-20T19:02:01.336Z,987.2
2023-03-20T19:04:03.056Z,987.2
2023-03-20T19:06:04.570Z,987.2
2023-03-20T19:08:05.527Z,987.1
2023-03-20T19:10:06.878Z,987.1
2023-03-20T19:12:07.893Z,987.1
2023-03-20T19:14:08.832Z,987.2
2023-03-20T19:16:10.412Z,987.2
2023-03-20T19:20:13.302Z,987.2
2023-03-20T19:22:28.403Z,987.2
2023-03-20T19:24:16.369Z,987.1
2023-03-20T19:26:17.334Z,987.2
2023-03-20T19:30:20.433Z,987.1
2023-03-20T19:32:21.664Z,987.2
2023-03-20T19:34:55.138Z,987.2
2023-03-20T19:36:24.597Z,987.1
2023-03-20T19:38:25.920Z,987.2
2023-03-20T19:40:26.869Z,987.2
2023-03-20T19:42:52.262Z,987.2
2023-03-20T19:44:29.885Z,987.2
2023-03-20T19:46:39.956Z,987.2
2023-03-20T19:48:46.726Z,987.3
2023-03-20T19:50:34.434Z,987.2
2023-03-20T19:52:35.782Z,987.2
2023-03-20T19:54:37.040Z,987.1
2023-03-20T19:56:38.926Z,987.2
2023-03-20T19:58:39.890Z,987.2
2023-03-20T20:00:58.427Z,987.2
2023-03-20T20:02:43.379Z,987.2
2023-03-20T20:04:44.844Z,987.2
2023-03-20T20:06:47.282Z,987.2
2023-03-20T20:08:48.944Z,987.2
2023-03-20T20:10:48.911Z,987.2
2023-03-20T20:12:51.205Z,987.2
2023-03-20T20:14:52.153Z,987.1
2023-03-20T20:18:54.481Z,987.1
2023-03-20T20:21:39.398Z,987.1
2023-03-20T20:22:57.457Z,987.3
2023-03-20T20:24:58.901Z,987.2
2023-03-20T20:27:15.671Z,987.3
2023-03-20T20:29:01.009Z,987.2
2023-03-20T20:31:02.772Z,987.2
2023-03-20T20:33:05.418Z,987.2
2023-03-20T20:35:43.882Z,987.2
2023-03-20T20:39:08.785Z,987.3
2023-03-20T20:41:09.759Z,987.2
2023-03-20T20:43:11.452Z,987.2
2023-03-20T20:45:13.358Z,987.2
2023-03-20T20:47:15.101Z,987.2
2023-03-20T20:49:19.708Z,987
2023-03-20T20:51:18.000Z,987.2
2023-03-20T20:53:19.672Z,987.1
2023-03-20T20:55:23.476Z,987.1
2023-03-20T20:57:22.158Z,987.1
2023-03-20T20:59:23.955Z,987.1
2023-03-20T21:01:25.918Z,987.3
2023-03-20T21:03:27.753Z,987.2
2023-03-20T21:05:28.834Z,987.2
2023-03-20T21:07:30.697Z,987.2
2023-03-20T21:09:32.103Z,987.2
2023-03-20T21:11:33.248Z,987.1
2023-03-20T21:13:34.269Z,987.1
2023-03-20T21:17:36.299Z,987.1
2023-03-20T21:19:37.925Z,987.1
2023-03-20T21:21:39.425Z,987.2
2023-03-20T21:23:40.958Z,987.2
2023-03-20T21:25:44.764Z,987.1
2023-03-20T21:27:44.042Z,987.2
2023-03-20T21:29:45.596Z,987.2
2023-03-20T21:31:47.156Z,987.3
2023-03-20T21:33:48.841Z,987.2
2023-03-20T21:35:50.602Z,987.2
2023-03-20T21:39:53.742Z,987.3
2023-03-20T21:41:55.131Z,987.2
2023-03-20T21:43:56.266Z,987.3
2023-03-20T21:46:46.628Z,987.2
2023-03-20T21:48:30.577Z,987.3
2023-03-20T21:52:54.432Z,987.3
2023-03-20T21:58:53.709Z,987.2
2023-03-20T22:01:00.691Z,987.3
2023-03-20T22:02:17.807Z,987.4
2023-03-20T22:07:05.850Z,987.3
2023-03-20T22:11:01.132Z,987.3
2023-03-20T22:13:00.203Z,987.3
2023-03-20T22:14:58.870Z,987.3
2023-03-20T22:17:20.798Z,987.4
2023-03-20T22:19:14.646Z,987.3
2023-03-20T22:21:29.924Z,987.4
2023-03-20T22:29:21.108Z,987.3
2023-03-20T22:31:19.171Z,987.3
2023-03-20T22:33:30.367Z,987.4
2023-03-20T22:39:04.719Z,987.3
2023-03-20T22:41:22.874Z,987.3
2023-03-20T22:42:56.185Z,987.3
2023-03-20T22:44:58.816Z,987.3
2023-03-20T22:46:49.456Z,987.3
2023-03-20T22:48:41.465Z,987.3
2023-03-20T22:50:42.585Z,987.2
2023-03-20T22:52:52.579Z,987.3
2023-03-20T22:54:45.101Z,987.3
2023-03-20T22:56:46.307Z,987.2
2023-03-20T22:58:47.239Z,987.2
2023-03-20T23:00:48.890Z,987.3
2023-03-20T23:02:49.799Z,987.3
2023-03-20T23:04:51.267Z,987.3
2023-03-20T23:06:52.263Z,987.2
2023-03-20T23:08:56.335Z,987.2
2023-03-20T23:10:55.365Z,987.2
2023-03-20T23:12:56.754Z,987.2
2023-03-20T23:14:58.504Z,987.2
2023-03-20T23:17:00.265Z,987.2
2023-03-20T23:19:01.895Z,987.2
2023-03-20T23:21:03.819Z,987.2
2023-03-20T23:25:16.345Z,987.2
2023-03-20T23:27:08.565Z,987.2
2023-03-20T23:29:09.992Z,987.1
2023-03-20T23:31:11.887Z,987.3
2023-03-20T23:33:13.224Z,987.2
2023-03-20T23:35:14.789Z,987.2
2023-03-20T23:37:15.770Z,987.2
2023-03-20T23:39:16.880Z,987.1
2023-03-20T23:41:18.143Z,987.1
2023-03-20T23:43:19.076Z,987.2
2023-03-20T23:45:21.334Z,987.2
2023-03-20T23:47:21.516Z,987.2
2023-03-20T23:49:22.875Z,987.1
2023-03-20T23:51:24.227Z,987.1
2023-03-20T23:53:25.882Z,987
2023-03-20T23:55:27.325Z,987
2023-03-20T23:57:28.622Z,987
2023-03-20T23:59:30.104Z,987
